Time;durP1;ratioP1;P1;durP2;ratioP2;P2;SDS_P1;SDS_P2;PMS_P1;PMS_P2;Temp;Humidity;BMP_temperature;BMP_pressure;BME280_temperature;BME280_humidity;BME280_pressure;Samples;Min_cycle;Max_cycle;Signal;HPM_P1;HPM_P2
2021/01/16 00:00:59;;;;;;;2.37;1.17;;;;;;;-5.67;84.35;101925.63;5028273;28;20199;-70
2021/01/16 00:03:26;;;;;;;0.50;0.50;;;;;;;-5.73;84.21;101925.53;5031490;28;20220;-70
2021/01/16 00:05:55;;;;;;;2.93;0.77;;;;;;;-5.70;84.34;101921.22;5021664;28;20210;-70
2021/01/16 00:08:24;;;;;;;0.20;0.20;;;;;;;-5.71;84.80;101923.81;5031175;28;20206;-70
2021/01/16 00:10:53;;;;;;;1.03;0.40;;;;;;;-5.64;85.54;101925.69;5018199;28;20293;-70
2021/01/16 00:13:22;;;;;;;0.20;0.20;;;;;;;-5.76;85.64;101901.94;5032612;28;20660;-70
2021/01/16 00:15:50;;;;;;;0.20;0.20;;;;;;;-5.59;85.72;101931.88;5042312;28;20254;-70
2021/01/16 00:18:18;;;;;;;1.13;0.63;;;;;;;-5.58;85.73;101931.00;5032757;28;20214;-70
2021/01/16 00:20:47;;;;;;;0.10;0.10;;;;;;;-5.59;85.15;101917.91;5023780;28;20206;-69
2021/01/16 00:23:15;;;;;;;0.90;0.67;;;;;;;-5.58;85.33;101915.31;5031308;28;20233;-70
2021/01/16 00:25:43;;;;;;;0.57;0.57;;;;;;;-5.61;85.14;101915.25;5033825;28;20202;-70
2021/01/16 00:28:16;;;;;;;0.50;0.50;;;;;;;-5.59;85.24;101905.72;5032736;28;20205;-70
2021/01/16 00:30:45;;;;;;;0.50;0.50;;;;;;;-5.86;85.38;101873.84;5032732;28;20228;-70
2021/01/16 00:33:16;;;;;;;0.43;0.40;;;;;;;-5.97;85.09;101853.66;5043328;28;20193;-70
2021/01/16 00:35:44;;;;;;;1.60;0.70;;;;;;;-5.62;86.27;101889.97;5020767;28;20226;-70
2021/01/16 00:38:11;;;;;;;0.93;0.57;;;;;;;-5.56;86.59;101881.31;5029912;28;20214;-70
2021/01/16 00:40:38;;;;;;;0.40;0.40;;;;;;;-5.54;86.63;101884.84;5032413;28;20202;-70
2021/01/16 00:43:07;;;;;;;0.33;0.33;;;;;;;-5.58;86.87;101878.69;5037114;28;20193;-70
2021/01/16 00:45:34;;;;;;;0.67;0.50;;;;;;;-5.54;87.00;101885.72;5033024;28;20212;-70
2021/01/16 00:48:08;;;;;;;0.50;0.50;;;;;;;-5.51;87.05;101875.34;5035598;28;20595;-70
2021/01/16 00:50:36;;;;;;;0.83;0.50;;;;;;;-5.46;87.36;101873.69;5029479;28;20206;-70
2021/01/16 00:53:03;;;;;;;1.20;1.20;;;;;;;-5.51;87.41;101853.50;5032847;28;20202;-70
2021/01/16 00:55:36;;;;;;;6.47;3.30;;;;;;;-5.45;87.24;101861.47;5064790;28;20315;-70
2021/01/16 00:58:11;;;;;;;4.67;2.20;;;;;;;-5.59;87.19;101845.53;5031999;28;20229;-70
2021/01/16 01:00:40;;;;;;;1.17;1.03;;;;;;;-5.84;86.65;101812.88;5029266;28;20230;-70
2021/01/16 01:03:09;;;;;;;2.57;0.97;;;;;;;-5.41;87.75;101858.03;5051996;28;20209;-70
2021/01/16 01:05:36;;;;;;;1.47;1.30;;;;;;;-5.44;87.15;101851.03;5026497;28;20206;-70
2021/01/16 01:08:04;;;;;;;0.50;0.50;;;;;;;-5.51;86.76;101854.41;5032892;28;20205;-70
2021/01/16 01:10:34;;;;;;;6.63;1.97;;;;;;;-5.46;86.86;101850.13;5031423;28;20214;-70
2021/01/16 01:13:01;;;;;;;0.73;0.57;;;;;;;-5.44;86.98;101853.66;5033933;28;20204;-71
2021/01/16 01:15:28;;;;;;;0.40;0.40;;;;;;;-5.57;85.43;101843.81;5041943;28;20236;-70
2021/01/16 01:17:58;;;;;;;0.80;0.70;;;;;;;-5.46;86.72;101842.28;5031091;28;20203;-70
2021/01/16 01:20:28;;;;;;;1.40;1.30;;;;;;;-5.62;86.53;101817.59;5031276;28;20210;-69
2021/01/16 01:22:55;;;;;;;0.23;0.23;;;;;;;-5.81;85.82;101791.16;5027633;28;20191;-70
2021/01/16 01:25:23;;;;;;;0.87;0.70;;;;;;;-5.76;86.36;101805.19;5032433;28;20209;-69
2021/01/16 01:27:52;;;;;;;1.87;0.97;;;;;;;-5.56;86.45;101835.13;5034280;28;20203;-69
2021/01/16 01:30:21;;;;;;;0.50;0.50;;;;;;;-5.56;85.44;101835.13;5031400;28;20208;-69
2021/01/16 01:32:48;;;;;;;0.43;0.40;;;;;;;-5.60;85.72;101833.31;5054981;28;20216;-69
2021/01/16 01:35:17;;;;;;;8.17;5.20;;;;;;;-5.73;85.17;101800.00;5027772;28;20321;-70
2021/01/16 01:37:47;;;;;;;0.67;0.67;;;;;;;-5.57;85.26;101828.13;5056181;28;20198;-69
2021/01/16 01:40:16;;;;;;;0.57;0.50;;;;;;;-5.50;85.74;101823.91;5031994;28;20756;-70
2021/01/16 01:42:47;;;;;;;5.20;0.57;;;;;;;-5.59;85.69;101808.91;5021309;28;20209;-69
2021/01/16 01:45:14;;;;;;;0.93;0.90;;;;;;;-5.53;85.98;101809.00;5028457;28;20194;-69
2021/01/16 01:47:42;;;;;;;0.70;0.70;;;;;;;-5.59;85.94;101813.28;5032412;28;20203;-69
2021/01/16 01:50:11;;;;;;;0.53;0.53;;;;;;;-5.62;85.75;101812.38;5029860;28;20309;-69
2021/01/16 01:52:39;;;;;;;0.30;0.30;;;;;;;-5.67;84.65;101813.16;5032042;28;20554;-70
2021/01/16 01:55:10;;;;;;;4.13;0.97;;;;;;;-5.70;84.34;101805.28;5031174;28;20674;-69
2021/01/16 01:57:39;;;;;;;0.83;0.53;;;;;;;-5.73;84.69;101815.69;5030359;28;20603;-69
2021/01/16 02:00:08;;;;;;;0.40;0.40;;;;;;;-5.70;84.89;101816.59;5037415;28;20210;-69
2021/01/16 02:02:42;;;;;;;0.40;0.40;;;;;;;-5.89;85.34;101769.25;5025304;28;20206;-69
2021/01/16 02:05:11;;;;;;;0.80;0.80;;;;;;;-5.56;86.02;101818.53;5025028;28;20198;-70
2021/01/16 02:07:44;;;;;;;0.20;0.20;;;;;;;-5.82;84.46;101816.41;5018745;28;20205;-70
2021/01/16 02:10:19;;;;;;;0.40;0.30;;;;;;;-5.80;84.06;101819.06;5011514;28;20233;-69
2021/01/16 02:12:47;;;;;;;1.13;0.43;;;;;;;-5.98;84.22;101810.09;5025908;28;20194;-70
2021/01/16 02:15:39;;;;;;;0.33;0.33;;;;;;;-5.91;83.89;101807.56;5043410;28;20221;-70
2021/01/16 02:18:15;;;;;;;1.93;0.50;;;;;;;-6.03;83.45;101814.34;5031337;28;20213;-70
2021/01/16 02:20:46;;;;;;;0.93;0.77;;;;;;;-6.13;83.61;101817.66;5029592;28;20214;-69
2021/01/16 02:23:45;;;;;;;0.60;0.60;;;;;;;-6.04;84.28;101820.44;5028503;28;20285;-69
2021/01/16 02:26:57;;;;;;;0.30;0.30;;;;;;;-6.15;83.57;101800.19;5031340;28;20641;-69
2021/01/16 02:29:25;;;;;;;0.57;0.57;;;;;;;-6.15;83.94;101798.44;5026388;28;20198;-69
2021/01/16 02:31:58;;;;;;;0.27;0.27;;;;;;;-6.20;84.02;101784.44;5041095;28;20198;-69
2021/01/16 02:34:30;;;;;;;1.50;0.30;;;;;;;-6.26;83.30;101784.31;5036178;28;20236;-69
2021/01/16 02:37:23;;;;;;;1.63;0.80;;;;;;;-6.16;84.76;101782.75;5020129;28;20194;-69
2021/01/16 02:40:03;;;;;;;16.27;7.20;;;;;;;-6.20;83.92;101786.16;5030963;28;20320;-69
2021/01/16 02:42:38;;;;;;;1.33;1.10;;;;;;;-6.23;83.97;101784.38;5029736;28;20212;-69
2021/01/16 02:45:10;;;;;;;0.83;0.83;;;;;;;-6.23;84.46;101781.75;5036028;28;20280;-69
2021/01/16 02:47:48;;;;;;;0.80;0.80;;;;;;;-6.08;85.19;101795.09;5031110;28;20221;-69
2021/01/16 02:50:20;;;;;;;1.63;0.97;;;;;;;-6.06;84.31;101795.13;5031074;28;20206;-69
2021/01/16 02:52:49;;;;;;;1.37;0.90;;;;;;;-5.95;84.99;101790.94;5031091;28;20207;-69
2021/01/16 02:55:17;;;;;;;1.33;0.77;;;;;;;-6.14;84.97;101741.81;5030749;28;20572;-69
2021/01/16 02:57:45;;;;;;;1.23;1.17;;;;;;;-5.82;85.39;101785.00;5029689;28;20198;-69
2021/01/16 03:00:16;;;;;;;0.57;0.57;;;;;;;-5.90;84.64;101775.34;5031356;28;20202;-69
2021/01/16 03:02:43;;;;;;;0.33;0.33;;;;;;;-5.91;84.97;101756.16;5039064;28;20203;-69
2021/01/16 03:05:11;;;;;;;0.33;0.33;;;;;;;-6.00;83.74;101764.75;5025885;28;20198;-69
2021/01/16 03:07:40;;;;;;;0.77;0.70;;;;;;;-5.93;84.76;101760.47;5030404;28;20220;-69
2021/01/16 03:10:10;;;;;;;1.70;0.53;;;;;;;-5.96;83.57;101763.06;5019048;28;20255;-69
2021/01/16 03:12:37;;;;;;;0.40;0.30;;;;;;;-5.87;84.85;101760.53;5027973;28;20555;-69
2021/01/16 03:15:07;;;;;;;1.13;1.03;;;;;;;-5.81;84.69;101765.88;5016966;28;20214;-69
2021/01/16 03:17:44;;;;;;;3.87;1.03;;;;;;;-5.75;85.01;101765.09;5034387;28;20199;-70
2021/01/16 03:20:14;;;;;;;1.20;0.87;;;;;;;-5.72;84.84;101760.78;5019519;28;20213;-69
2021/01/16 03:22:41;;;;;;;0.37;0.37;;;;;;;-5.77;84.59;101751.13;5034902;28;20731;-69
2021/01/16 03:25:09;;;;;;;0.43;0.43;;;;;;;-5.75;85.12;101749.41;5034883;28;20198;-69
2021/01/16 03:27:36;;;;;;;0.10;0.10;;;;;;;-5.86;84.66;101748.34;5035036;28;20545;-69
2021/01/16 03:30:06;;;;;;;2.60;2.17;;;;;;;-5.76;85.29;101750.25;5032051;28;20284;-69
2021/01/16 03:32:33;;;;;;;1.40;0.47;;;;;;;-5.83;84.03;101743.16;5040983;28;20206;-69
2021/01/16 03:35:01;;;;;;;2.27;2.10;;;;;;;-5.82;84.67;101745.78;5034932;28;20236;-69
2021/01/16 03:37:28;;;;;;;0.67;0.67;;;;;;;-5.90;84.16;101739.59;5025239;28;20202;-68
2021/01/16 03:39:55;;;;;;;0.10;0.10;;;;;;;-5.88;83.43;101739.59;5034202;28;20201;-69
2021/01/16 03:42:23;;;;;;;0.77;0.70;;;;;;;-6.00;83.89;101727.25;5033454;28;20210;-69
2021/01/16 03:44:50;;;;;;;0.30;0.30;;;;;;;-6.02;84.21;101729.84;5064576;28;20210;-69
2021/01/16 03:47:17;;;;;;;0.20;0.20;;;;;;;-6.19;83.41;101741.75;5031778;28;20191;-69
2021/01/16 03:49:44;;;;;;;0.60;0.50;;;;;;;-6.32;82.65;101727.63;5037845;28;20198;-69
2021/01/16 03:52:27;;;;;;;0.33;0.23;;;;;;;-6.19;84.13;101736.53;5031784;28;20209;-69
2021/01/16 03:54:54;;;;;;;0.30;0.30;;;;;;;-6.57;83.48;101702.81;5022379;28;20241;-69
2021/01/16 03:57:22;;;;;;;0.67;0.67;;;;;;;-6.32;82.87;101739.81;5030483;28;20256;-69
2021/01/16 03:59:49;;;;;;;0.20;0.20;;;;;;;-6.26;83.88;101734.69;5026885;28;20213;-69
2021/01/16 04:02:17;;;;;;;2.13;0.90;;;;;;;-6.22;83.95;101746.94;5034798;28;20285;-69
2021/01/16 04:04:45;;;;;;;0.20;0.20;;;;;;;-6.27;83.83;101741.63;5031935;28;20254;-69
2021/01/16 04:07:13;;;;;;;0.60;0.40;;;;;;;-6.19;84.53;101740.88;5029726;28;20221;-70
2021/01/16 04:09:41;;;;;;;0.30;0.30;;;;;;;-6.28;84.73;101733.78;5032712;28;20245;-69
2021/01/16 04:12:09;;;;;;;0.27;0.27;;;;;;;-6.26;85.04;101735.56;5032976;28;20545;-69
2021/01/16 04:14:36;;;;;;;0.10;0.10;;;;;;;-6.33;84.62;101730.22;5032343;28;20222;-70
2021/01/16 04:17:05;;;;;;;0.20;0.20;;;;;;;-6.30;85.16;101728.53;5035079;28;20620;-69
2021/01/16 04:19:32;;;;;;;3.97;2.50;;;;;;;-6.33;85.02;101732.81;5036385;28;20599;-69
2021/01/16 04:21:59;;;;;;;1.70;1.60;;;;;;;-6.37;84.85;101731.03;5023277;28;20209;-69
2021/01/16 04:24:28;;;;;;;0.50;0.50;;;;;;;-6.31;85.60;101715.44;5033602;28;20549;-70
2021/01/16 04:26:55;;;;;;;0.40;0.40;;;;;;;-6.32;84.80;101718.91;5031098;28;20198;-69
2021/01/16 04:29:22;;;;;;;0.40;0.20;;;;;;;-6.33;85.56;101709.31;5038600;28;20236;-69
2021/01/16 04:31:49;;;;;;;0.33;0.33;;;;;;;-6.26;84.85;101724.22;5035148;28;20215;-69
2021/01/16 04:34:17;;;;;;;1.07;0.93;;;;;;;-6.30;84.79;101719.81;5042230;28;20237;-69
2021/01/16 04:36:44;;;;;;;1.60;1.27;;;;;;;-6.12;85.52;101730.56;5029360;28;20218;-69
2021/01/16 04:39:11;;;;;;;0.40;0.37;;;;;;;-6.09;85.12;101721.91;5033271;28;20731;-69
2021/01/16 04:41:40;;;;;;;0.73;0.70;;;;;;;-6.14;85.08;101713.97;5033289;28;20208;-69
2021/01/16 04:44:08;;;;;;;0.30;0.30;;;;;;;-6.03;84.75;101722.00;5033422;28;20192;-69
2021/01/16 04:46:36;;;;;;;1.30;0.90;;;;;;;-6.08;84.54;101711.47;5032526;28;20649;-70
2021/01/16 04:49:05;;;;;;;0.23;0.23;;;;;;;-6.21;83.04;101717.34;5041503;28;20205;-70
2021/01/16 04:51:34;;;;;;;0.50;0.50;;;;;;;-6.08;84.54;101707.97;5029428;28;20203;-69
2021/01/16 04:54:03;;;;;;;0.50;0.50;;;;;;;-6.02;84.62;101702.84;5032832;28;20624;-70
2021/01/16 04:56:34;;;;;;;0.17;0.17;;;;;;;-6.02;83.81;101710.69;5030928;28;20221;-69
2021/01/16 04:59:03;;;;;;;0.67;0.37;;;;;;;-5.96;84.40;101706.41;5032874;28;20201;-69
2021/01/16 05:01:30;;;;;;;0.83;0.70;;;;;;;-5.92;84.64;101715.19;5040841;28;20240;-69
2021/01/16 05:03:58;;;;;;;1.23;0.50;;;;;;;-6.05;83.99;101702.78;5036176;28;20283;-70
2021/01/16 05:06:27;;;;;;;1.20;0.60;;;;;;;-5.96;84.15;101709.03;5026331;28;20216;-70
2021/01/16 05:08:56;;;;;;;0.60;0.60;;;;;;;-5.95;84.31;101712.53;5029550;28;20210;-69
2021/01/16 05:11:35;;;;;;;0.10;0.10;;;;;;;-6.01;83.20;101700.25;5020039;28;20241;-69
2021/01/16 05:14:19;;;;;;;0.20;0.20;;;;;;;-6.03;83.89;101686.28;5032402;28;20214;-69
2021/01/16 05:16:54;;;;;;;0.53;0.53;;;;;;;-5.96;83.90;101690.72;5018166;28;20284;-69
2021/01/16 05:19:25;;;;;;;2.17;0.73;;;;;;;-6.00;83.58;101695.91;5030079;28;20301;-70
2021/01/16 05:21:54;;;;;;;0.20;0.20;;;;;;;-6.07;83.15;101700.16;5013715;28;20206;-70
2021/01/16 05:24:22;;;;;;;0.47;0.30;;;;;;;-6.09;83.43;101696.66;5025209;28;20209;-70
2021/01/16 05:27:03;;;;;;;0.33;0.30;;;;;;;-6.06;83.56;101701.91;5027601;28;20214;-70
2021/01/16 05:29:33;;;;;;;0.13;0.13;;;;;;;-6.12;83.10;101695.69;5016025;28;20203;-70
2021/01/16 05:32:02;;;;;;;0.30;0.27;;;;;;;-6.02;84.29;101702.84;5031717;28;20198;-69
2021/01/16 05:34:30;;;;;;;0.43;0.30;;;;;;;-6.04;83.75;101705.44;5032027;28;20259;-69
2021/01/16 05:36:59;;;;;;;0.20;0.20;;;;;;;-6.07;83.65;101694.06;5031047;28;20228;-69
2021/01/16 05:39:28;;;;;;;1.90;0.53;;;;;;;-6.10;83.24;101700.13;5032123;28;20228;-69
2021/01/16 05:41:57;;;;;;;0.13;0.13;;;;;;;-6.14;83.09;101702.63;5030720;28;20205;-69
2021/01/16 05:44:26;;;;;;;0.43;0.30;;;;;;;-6.09;83.29;101701.00;5029832;28;20210;-69
2021/01/16 05:46:56;;;;;;;0.57;0.57;;;;;;;-6.08;83.13;101701.00;5031587;28;20229;-69
2021/01/16 05:49:24;;;;;;;43.27;14.70;;;;;;;-6.04;83.50;101705.44;5031770;28;20649;-69
2021/01/16 05:51:52;;;;;;;0.47;0.47;;;;;;;-5.99;83.80;101697.66;5031488;28;20209;-69
2021/01/16 05:54:28;;;;;;;1.30;1.20;;;;;;;-6.07;83.98;101689.69;5030548;28;20197;-69
2021/01/16 05:56:57;;;;;;;1.77;0.57;;;;;;;-5.92;84.59;101701.22;5031333;28;20233;-69
2021/01/16 05:59:31;;;;;;;0.83;0.83;;;;;;;-5.89;84.21;101704.72;5031277;28;20220;-69
2021/01/16 06:02:03;;;;;;;0.60;0.60;;;;;;;-6.15;83.89;101661.66;5036617;28;20208;-69
2021/01/16 06:04:33;;;;;;;0.50;0.50;;;;;;;-5.91;83.93;101697.75;5019920;28;20209;-69
2021/01/16 06:07:06;;;;;;;0.33;0.33;;;;;;;-5.95;83.38;101702.94;5031355;28;20513;-69
2021/01/16 06:09:36;;;;;;;0.30;0.30;;;;;;;-5.87;83.58;101686.44;5018516;28;20287;-69
2021/01/16 06:12:05;;;;;;;0.47;0.47;;;;;;;-5.87;83.18;101695.16;5019652;28;20650;-70
2021/01/16 06:14:42;;;;;;;0.73;0.37;;;;;;;-5.85;83.51;101696.06;5027596;28;20245;-69
2021/01/16 06:17:12;;;;;;;0.50;0.50;;;;;;;-6.04;82.51;101674.06;5022545;28;20232;-69
2021/01/16 06:19:42;;;;;;;0.30;0.30;;;;;;;-5.95;82.52;101689.88;5027380;28;20210;-69
2021/01/16 06:22:11;;;;;;;0.23;0.23;;;;;;;-5.95;82.61;101691.59;5028083;28;20284;-69
2021/01/16 06:24:39;;;;;;;1.17;1.00;;;;;;;-5.90;82.88;101683.81;5030063;28;20205;-69
2021/01/16 06:27:06;;;;;;;0.43;0.43;;;;;;;-5.98;82.73;101671.53;5011577;28;20205;-69
2021/01/16 06:29:35;;;;;;;1.03;1.03;;;;;;;-5.78;82.81;101682.25;5021817;28;20203;-70
2021/01/16 06:32:05;;;;;;;0.10;0.10;;;;;;;-5.83;82.76;101690.88;5025966;28;20561;-70
2021/01/16 06:34:35;;;;;;;0.30;0.30;;;;;;;-5.87;82.20;101686.44;5019605;28;20249;-69
2021/01/16 06:37:09;;;;;;;0.97;0.60;;;;;;;-5.84;82.11;101681.25;5021565;28;20228;-69
2021/01/16 06:39:39;;;;;;;0.40;0.40;;;;;;;-5.72;82.12;101691.91;5023169;28;20206;-68
2021/01/16 06:42:10;;;;;;;0.43;0.30;;;;;;;-5.80;82.26;101681.34;5016702;28;20209;-69
2021/01/16 06:44:38;;;;;;;0.20;0.20;;;;;;;-5.69;82.25;101686.72;5024417;28;20205;-69
2021/01/16 06:47:07;;;;;;;0.50;0.40;;;;;;;-5.72;81.97;101694.53;5013752;28;20199;-69
2021/01/16 06:49:36;;;;;;;0.53;0.50;;;;;;;-5.58;82.31;101687.72;5012587;28;20211;-69
2021/01/16 06:52:05;;;;;;;2.53;0.80;;;;;;;-5.67;82.31;101664.06;5012290;28;20212;-69
2021/01/16 06:54:33;;;;;;;0.80;0.53;;;;;;;-5.59;82.00;101665.03;5011808;28;20674;-69
2021/01/16 06:57:06;;;;;;;0.73;0.60;;;;;;;-5.50;81.92;101672.16;5014845;28;20229;-69
2021/01/16 06:59:35;;;;;;;0.10;0.10;;;;;;;-5.48;81.50;101665.22;5010365;28;20218;-69
2021/01/16 07:02:21;;;;;;;0.23;0.23;;;;;;;-5.46;81.53;101668.72;5015220;28;20210;-69
2021/01/16 07:04:54;;;;;;;0.13;0.13;;;;;;;-5.55;81.03;101671.19;5012840;28;20235;-69
2021/01/16 07:07:28;;;;;;;0.50;0.50;;;;;;;-5.47;82.01;101669.56;5014241;28;20213;-69
2021/01/16 07:10:01;;;;;;;0.20;0.20;;;;;;;-5.50;82.26;101673.03;5008166;28;20207;-69
2021/01/16 07:12:28;;;;;;;0.10;0.10;;;;;;;-5.47;82.34;101675.69;5014417;28;20214;-69
2021/01/16 07:14:55;;;;;;;0.57;0.37;;;;;;;-5.53;81.87;101682.56;5020461;28;20198;-69
2021/01/16 07:17:24;;;;;;;0.50;0.40;;;;;;;-5.59;82.00;101687.72;5023913;28;20221;-69
2021/01/16 07:19:55;;;;;;;0.70;0.30;;;;;;;-5.60;81.70;101676.38;5034346;28;20206;-69
2021/01/16 07:22:26;;;;;;;0.80;0.60;;;;;;;-5.53;81.41;101680.81;5025021;28;20244;-69
2021/01/16 07:24:55;;;;;;;0.10;0.10;;;;;;;-5.60;82.01;101671.13;5015829;28;21165;-70
2021/01/16 07:27:24;;;;;;;0.10;0.10;;;;;;;-5.54;81.82;101691.25;5015141;28;20214;-69
2021/01/16 07:29:55;;;;;;;0.97;0.30;;;;;;;-5.55;81.56;101685.16;5020967;28;20215;-70
2021/01/16 07:32:37;;;;;;;0.40;0.27;;;;;;;-5.58;81.46;101687.72;5022354;28;20218;-69
2021/01/16 07:35:07;;;;;;;0.20;0.20;;;;;;;-5.62;81.05;101686.81;5052044;28;20256;-69
2021/01/16 07:37:34;;;;;;;4.60;3.37;;;;;;;-5.60;81.41;101676.38;5015459;28;20703;-70
2021/01/16 07:40:23;;;;;;;2.03;0.60;;;;;;;-5.62;81.39;101685.94;5017027;28;20262;-69
2021/01/16 07:42:51;;;;;;;1.03;0.80;;;;;;;-5.46;81.91;101682.69;5052486;28;20280;-69
2021/01/16 07:45:24;;;;;;;0.20;0.20;;;;;;;-5.46;81.50;101682.69;5019040;28;20206;-69
2021/01/16 07:47:54;;;;;;;0.30;0.30;;;;;;;-5.53;81.25;101675.59;5015003;28;20199;-69
2021/01/16 07:50:24;;;;;;;0.97;0.57;;;;;;;-5.53;81.39;101677.31;5014479;28;20238;-69
2021/01/16 07:52:56;;;;;;;1.00;0.77;;;;;;;-5.37;81.37;101684.53;5015804;28;20199;-69
2021/01/16 07:55:43;;;;;;;0.40;0.40;;;;;;;-5.29;81.54;101671.53;5018527;28;20301;-69
2021/01/16 07:58:25;;;;;;;0.40;0.40;;;;;;;-5.22;81.20;101674.22;5014267;28;20625;-69
2021/01/16 08:00:57;;;;;;;1.90;0.40;;;;;;;-5.14;81.37;101661.25;5048653;28;20213;-71
2021/01/16 08:03:31;;;;;;;0.67;0.67;;;;;;;-5.05;81.36;101661.34;5018245;28;20205;-71
2021/01/16 08:06:15;;;;;;;0.37;0.37;;;;;;;-5.07;80.96;101647.34;5023465;28;20716;-71
2021/01/16 08:08:55;;;;;;;0.20;0.20;;;;;;;-4.99;81.10;101648.28;5021615;28;20700;-71
2021/01/16 08:11:28;;;;;;;0.10;0.10;;;;;;;-4.95;80.92;101652.69;5018956;28;20754;-71
2021/01/16 08:14:00;;;;;;;0.93;0.57;;;;;;;-5.84;80.55;101508.69;5020376;28;20212;-71
2021/01/16 08:16:27;;;;;;;0.20;0.20;;;;;;;-4.94;80.56;101651.84;5019026;28;20526;-71
2021/01/16 08:19:13;;;;;;;0.40;0.40;;;;;;;-4.92;80.79;101644.88;5015619;28;20245;-70
2021/01/16 08:21:52;;;;;;;0.20;0.20;;;;;;;-4.95;80.02;101647.47;5019638;28;20226;-70
2021/01/16 08:24:21;;;;;;;0.40;0.40;;;;;;;-5.00;80.60;101650.03;5023769;28;20208;-71
2021/01/16 08:26:58;;;;;;;0.37;0.37;;;;;;;-4.89;80.73;101647.53;5021316;28;20229;-72
2021/01/16 08:29:27;;;;;;;0.53;0.23;;;;;;;-4.80;80.68;101657.22;5021072;28;20581;-71
2021/01/16 08:32:09;;;;;;;0.87;0.50;;;;;;;-4.74;80.80;101655.53;5020030;28;20205;-71
2021/01/16 08:34:56;;;;;;;0.57;0.57;;;;;;;-4.68;80.58;101655.59;5017212;28;20241;-71
2021/01/16 08:37:28;;;;;;;1.00;0.90;;;;;;;-4.72;80.77;101660.78;5023845;28;20244;-72
2021/01/16 08:39:56;;;;;;;0.70;0.63;;;;;;;-4.54;81.18;101653.09;5019336;28;20198;-72
2021/01/16 08:42:25;;;;;;;1.20;0.57;;;;;;;-4.56;81.15;101661.81;5016252;28;20314;-71
2021/01/16 08:44:54;;;;;;;0.47;0.47;;;;;;;-4.54;81.09;101660.09;5012592;28;20843;-72
2021/01/16 08:47:22;;;;;;;1.07;0.43;;;;;;;-4.50;80.92;101656.63;5022222;28;20203;-72
2021/01/16 08:49:49;;;;;;;0.63;0.63;;;;;;;-4.47;80.57;101651.41;5023891;28;20216;-72
2021/01/16 08:52:34;;;;;;;0.90;0.67;;;;;;;-4.46;80.48;101655.78;5023873;28;20213;-72
2021/01/16 08:55:04;;;;;;;0.43;0.43;;;;;;;-4.36;80.71;101657.59;5023212;28;20248;-71
2021/01/16 08:57:33;;;;;;;0.57;0.53;;;;;;;-4.39;81.05;101665.44;5021068;28;20611;-72
2021/01/16 09:00:15;;;;;;;0.50;0.43;;;;;;;-4.39;80.68;101665.44;5015990;28;20273;-72
2021/01/16 09:02:42;;;;;;;3.37;1.00;;;;;;;-4.51;81.25;101649.63;5023022;28;20665;-72
2021/01/16 09:05:27;;;;;;;1.70;0.60;;;;;;;-4.36;81.64;101662.84;5015564;28;20208;-72
2021/01/16 09:07:56;;;;;;;0.53;0.40;;;;;;;-4.31;81.78;101658.50;5018564;28;20210;-72
2021/01/16 09:10:24;;;;;;;0.67;0.50;;;;;;;-4.32;82.00;101663.75;5019882;28;20743;-72
2021/01/16 09:12:55;;;;;;;0.43;0.40;;;;;;;-4.29;81.88;101671.63;5016470;28;20633;-72
2021/01/16 09:15:24;;;;;;;0.50;0.50;;;;;;;-4.30;81.50;101673.38;5016179;28;20304;-72
2021/01/16 09:18:09;;;;;;;0.50;0.50;;;;;;;-4.29;81.56;101667.25;5020221;28;20446;-72
2021/01/16 09:20:39;;;;;;;1.37;0.70;;;;;;;-4.26;81.53;101664.69;5019120;28;20435;-72
2021/01/16 09:23:27;;;;;;;0.40;0.40;;;;;;;-4.21;81.28;101660.34;5019568;28;20731;-72
2021/01/16 09:25:57;;;;;;;0.50;0.50;;;;;;;-4.19;81.29;101673.47;5019203;28;20201;-72
2021/01/16 09:28:42;;;;;;;0.30;0.30;;;;;;;-4.25;81.43;101662.94;5014155;28;20215;-72
2021/01/16 09:31:24;;;;;;;0.30;0.30;;;;;;;-4.28;81.12;101658.56;5020112;28;20203;-72
2021/01/16 09:33:53;;;;;;;0.40;0.40;;;;;;;-4.24;81.12;101659.47;5018424;28;20237;-72
2021/01/16 09:36:44;;;;;;;51.20;24.23;;;;;;;-4.22;81.60;101658.59;5048027;28;20230;-72
2021/01/16 09:39:24;;;;;;;0.77;0.77;;;;;;;-4.34;81.80;101632.28;5019924;28;20201;-71
2021/01/16 09:41:54;;;;;;;0.30;0.30;;;;;;;-4.48;81.57;101603.34;5019356;28;20685;-72
2021/01/16 09:44:50;;;;;;;0.53;0.53;;;;;;;-4.12;81.71;101660.41;5016314;28;21371;-72
2021/01/16 09:47:45;;;;;;;0.60;0.60;;;;;;;-4.01;81.72;101652.59;5017781;28;20561;-72
2021/01/16 09:50:15;;;;;;;0.53;0.53;;;;;;;-4.01;81.88;101656.97;5007079;28;20305;-72
2021/01/16 09:53:03;;;;;;;0.47;0.47;;;;;;;-3.94;82.10;101653.53;5015576;28;20648;-72
2021/01/16 09:55:38;;;;;;;0.30;0.30;;;;;;;-3.92;82.02;101655.31;5043179;28;20702;-72
2021/01/16 09:58:30;;;;;;;0.60;0.60;;;;;;;-3.81;82.13;101644.88;5018204;28;20736;-72
2021/01/16 10:01:17;;;;;;;0.50;0.50;;;;;;;-3.85;81.79;101637.84;5012522;28;20195;-71
2021/01/16 10:03:46;;;;;;;0.53;0.53;;;;;;;-3.89;81.79;101649.19;5013996;28;20199;-72
2021/01/16 10:06:18;;;;;;;0.30;0.30;;;;;;;-4.02;81.66;101640.34;5013305;28;20238;-72
2021/01/16 10:08:46;;;;;;;0.67;0.53;;;;;;;-3.95;81.90;101646.53;5012310;28;20205;-72
2021/01/16 10:11:35;;;;;;;0.60;0.60;;;;;;;-3.93;81.73;101658.81;5015566;28;20867;-72
2021/01/16 10:14:11;;;;;;;0.70;0.37;;;;;;;-3.97;82.04;101650.91;5018009;28;20225;-73
2021/01/16 10:16:39;;;;;;;0.47;0.47;;;;;;;-3.87;82.27;101632.59;5012024;28;20693;-72
2021/01/16 10:19:11;;;;;;;1.67;0.47;;;;;;;-3.85;82.19;101645.72;5013102;28;20285;-72
2021/01/16 10:21:52;;;;;;;1.10;0.70;;;;;;;-3.92;82.50;101630.81;5013490;28;20201;-72
2021/01/16 10:24:20;;;;;;;0.50;0.50;;;;;;;-3.74;82.55;101641.41;5009216;28;20237;-73
2021/01/16 10:26:48;;;;;;;1.13;0.70;;;;;;;-3.74;82.22;101641.41;5010853;28;20230;-73
2021/01/16 10:29:21;;;;;;;0.57;0.57;;;;;;;-4.14;82.33;101578.25;5007801;28;20665;-72
2021/01/16 10:31:48;;;;;;;0.70;0.63;;;;;;;-4.11;82.10;101588.75;5020069;28;20677;-72
2021/01/16 10:34:18;;;;;;;0.33;0.33;;;;;;;-3.78;82.58;101630.00;5012989;28;20234;-71
2021/01/16 10:36:47;;;;;;;0.87;0.87;;;;;;;-3.71;82.85;101617.78;5014416;28;20697;-72
2021/01/16 10:39:16;;;;;;;1.33;0.83;;;;;;;-3.60;82.77;101624.00;5019369;28;20206;-72
2021/01/16 10:41:45;;;;;;;0.90;0.70;;;;;;;-3.46;82.63;101626.66;5015596;28;21087;-72
2021/01/16 10:44:14;;;;;;;1.33;0.77;;;;;;;-3.45;82.51;101610.91;5020383;28;20207;-72
2021/01/16 10:46:43;;;;;;;1.53;0.87;;;;;;;-3.40;82.32;101623.16;5013246;28;20207;-72
2021/01/16 10:49:16;;;;;;;0.90;0.90;;;;;;;-3.47;82.23;101625.78;5018897;28;20217;-72
2021/01/16 10:51:52;;;;;;;0.60;0.60;;;;;;;-3.50;82.04;101603.88;5014716;28;20207;-73
2021/01/16 10:54:20;;;;;;;1.90;1.53;;;;;;;-3.27;81.97;101607.47;5016512;28;20199;-73
2021/01/16 10:56:59;;;;;;;0.77;0.40;;;;;;;-3.30;82.30;101606.59;5014505;28;20309;-72
2021/01/16 10:59:29;;;;;;;0.67;0.60;;;;;;;-3.38;82.67;101606.53;5012506;28;20207;-72
2021/01/16 11:01:58;;;;;;;1.97;1.23;;;;;;;-3.24;83.03;101619.72;5021071;28;20226;-72
2021/01/16 11:04:27;;;;;;;1.13;0.90;;;;;;;-3.14;82.79;101617.13;5022562;28;20263;-72
2021/01/16 11:06:58;;;;;;;0.80;0.80;;;;;;;-3.20;82.45;101627.63;5021169;28;20210;-73
2021/01/16 11:10:03;;;;;;;2.53;0.73;;;;;;;-3.19;82.46;101625.88;5019443;28;20208;-73
2021/01/16 11:12:31;;;;;;;0.97;0.80;;;;;;;-3.14;82.73;101625.00;5022424;28;20438;-73
2021/01/16 11:15:00;;;;;;;1.03;0.93;;;;;;;-3.09;82.19;101622.38;5012057;28;20199;-73
2021/01/16 11:17:48;;;;;;;0.70;0.70;;;;;;;-3.08;82.84;101611.00;5008853;28;20237;-73
2021/01/16 11:20:24;;;;;;;1.30;0.93;;;;;;;-3.20;82.55;101580.34;5024118;28;20744;-73
2021/01/16 11:23:28;;;;;;;0.57;0.57;;;;;;;-2.95;82.28;101614.53;5024457;28;20197;-73
2021/01/16 11:25:56;;;;;;;0.40;0.40;;;;;;;-2.87;81.97;101613.66;5011392;28;20211;-73
2021/01/16 11:28:24;;;;;;;0.17;0.13;;;;;;;-2.90;82.31;101613.66;5020635;28;20763;-73
2021/01/16 11:31:04;;;;;;;0.50;0.50;;;;;;;-2.79;81.94;101604.91;5013107;28;20709;-73
2021/01/16 11:33:31;;;;;;;0.47;0.47;;;;;;;-2.78;82.05;101617.19;5049395;28;20743;-74
2021/01/16 11:36:13;;;;;;;0.60;0.60;;;;;;;-2.85;82.29;101611.91;5015172;28;20701;-71
2021/01/16 11:38:42;;;;;;;0.77;0.77;;;;;;;-2.92;82.29;101604.03;5026144;28;20623;-71
2021/01/16 11:41:11;;;;;;;0.40;0.40;;;;;;;-2.78;82.24;101612.78;5020688;28;20203;-69
2021/01/16 11:43:38;;;;;;;0.90;0.73;;;;;;;-2.82;81.78;101611.91;5018893;28;20594;-72
2021/01/16 11:46:10;;;;;;;0.60;0.57;;;;;;;-3.17;82.37;101576.84;5015166;28;20721;-72